Time;durP1;ratioP1;P1;durP2;ratioP2;P2;SDS_P1;SDS_P2;PMS_P1;PMS_P2;Temp;Humidity;BMP_temperature;BMP_pressure;BME280_temperature;BME280_humidity;BME280_pressure;Samples;Min_cycle;Max_cycle;Signal;HPM_P1;HPM_P2
2024/01/23 00:01:35;;;;;;;35.60;17.00;;;;;;;-6.02;79.59;96302.15;106718;1274;24398;-84
2024/01/23 00:04:03;;;;;;;16.50;7.90;;;;;;;-6.00;79.59;96303.98;106730;1274;25327;-85
2024/01/23 00:06:32;;;;;;;11.60;5.90;;;;;;;-5.92;79.76;96307.52;106799;1275;22654;-84
2024/01/23 00:09:00;;;;;;;21.50;10.30;;;;;;;-5.89;79.78;96306.68;106709;1264;22582;-85
2024/01/23 00:11:28;;;;;;;40.90;19.80;;;;;;;-5.88;80.00;96306.73;106677;1275;24365;-85
2024/01/23 00:13:56;;;;;;;64.00;28.90;;;;;;;-5.88;80.06;96304.68;106814;1274;22532;-85
2024/01/23 00:16:24;;;;;;;56.30;24.10;;;;;;;-5.78;80.36;96301.06;106705;1274;25383;-84
2024/01/23 00:18:53;;;;;;;56.40;26.80;;;;;;;-5.73;79.77;96300.16;106722;1275;25493;-84
2024/01/23 00:21:21;;;;;;;68.70;30.40;;;;;;;-5.73;79.56;96302.23;106747;1275;22527;-83
2024/01/23 00:23:51;;;;;;;60.70;26.50;;;;;;;-5.72;80.08;96305.38;106720;1274;25448;-83
2024/01/23 00:26:19;;;;;;;53.00;22.40;;;;;;;-5.61;80.59;96310.39;106751;1274;22608;-83
2024/01/23 00:28:47;;;;;;;55.30;22.60;;;;;;;-5.48;80.73;96308.36;106714;1275;22530;-83
2024/01/23 00:31:16;;;;;;;49.50;20.40;;;;;;;-5.39;80.10;96307.27;106664;1275;24294;-83
2024/01/23 00:33:44;;;;;;;67.50;25.30;;;;;;;-5.35;80.04;96307.67;106740;1274;24314;-84
2024/01/23 00:36:12;;;;;;;121.10;39.00;;;;;;;-5.30;79.41;96311.89;106691;1275;23231;-83
2024/01/23 00:38:40;;;;;;;114.20;40.00;;;;;;;-5.37;78.75;96310.33;106617;1274;22584;-83
2024/01/23 00:41:09;;;;;;;103.40;37.40;;;;;;;-5.35;79.07;96313.35;106792;1275;22517;-83
2024/01/23 00:43:37;;;;;;;108.60;38.50;;;;;;;-5.33;79.06;96316.02;106708;1275;22517;-84
2024/01/23 00:46:05;;;;;;;86.80;35.20;;;;;;;-5.26;79.31;96309.55;106631;1274;22538;-84
2024/01/23 00:48:33;;;;;;;82.50;31.40;;;;;;;-5.29;78.86;96307.13;106760;1275;22926;-83
2024/01/23 00:51:02;;;;;;;83.90;33.80;;;;;;;-5.35;79.39;96301.67;106702;1274;23895;-84
2024/01/23 00:53:30;;;;;;;86.80;32.20;;;;;;;-5.35;79.35;96294.31;106653;1274;23922;-84
2024/01/23 00:55:59;;;;;;;52.10;24.00;;;;;;;-5.34;79.19;96296.79;106716;1274;22642;-84
2024/01/23 00:58:27;;;;;;;101.40;36.90;;;;;;;-5.29;79.01;96294.80;106730;1274;25465;-84
2024/01/23 01:00:55;;;;;;;101.60;38.80;;;;;;;-5.27;78.62;96291.98;106700;1274;23884;-84
2024/01/23 01:03:23;;;;;;;74.00;31.00;;;;;;;-5.21;79.09;96291.30;106722;1274;22628;-83
2024/01/23 01:05:52;;;;;;;60.80;27.00;;;;;;;-5.13;78.89;96290.17;106762;1274;24228;-84
2024/01/23 01:08:20;;;;;;;95.20;36.60;;;;;;;-5.10;78.36;96285.48;106704;1275;22641;-84
2024/01/23 01:10:49;;;;;;;129.70;49.10;;;;;;;-5.09;78.36;96285.25;106788;1274;24373;-84
2024/01/23 01:13:17;;;;;;;119.60;43.50;;;;;;;-5.04;78.41;96281.38;106663;1275;24252;-83
2024/01/23 01:15:45;;;;;;;104.50;39.30;;;;;;;-4.98;78.17;96279.25;106806;1275;23149;-84
2024/01/23 01:18:13;;;;;;;70.00;28.70;;;;;;;-5.11;77.69;96269.86;106646;1275;24142;-83
2024/01/23 01:20:43;;;;;;;41.80;18.30;;;;;;;-5.20;77.97;96267.52;106686;1274;22632;-84
2024/01/23 01:23:12;;;;;;;36.40;16.20;;;;;;;-5.18;78.20;96261.09;106722;1274;22535;-84
2024/01/23 01:25:43;;;;;;;30.30;13.60;;;;;;;-5.24;78.12;96258.58;106696;1274;22568;-83
2024/01/23 01:28:14;;;;;;;37.50;17.20;;;;;;;-5.27;78.05;96254.07;106713;1274;24383;-83
2024/01/23 01:30:43;;;;;;;37.00;15.90;;;;;;;-5.28;78.19;96250.60;106811;1274;22794;-84
2024/01/23 01:33:12;;;;;;;37.10;17.00;;;;;;;-5.31;78.31;96251.15;106659;1275;24215;-84
2024/01/23 01:35:41;;;;;;;38.20;17.90;;;;;;;-5.33;79.20;96250.33;106681;1274;22599;-84
2024/01/23 01:38:09;;;;;;;38.70;17.70;;;;;;;-5.38;79.47;96247.86;106759;1274;24273;-84
2024/01/23 01:40:37;;;;;;;34.30;16.90;;;;;;;-5.35;80.33;96243.05;106670;1274;24540;-83
2024/01/23 01:43:05;;;;;;;42.30;18.10;;;;;;;-5.34;79.86;96242.91;106711;1275;23830;-83
2024/01/23 01:45:33;;;;;;;35.50;16.70;;;;;;;-5.29;80.41;96237.19;106694;1274;22553;-83
2024/01/23 01:48:02;;;;;;;39.80;17.10;;;;;;;-5.30;80.11;96236.31;106624;1274;22580;-83
2024/01/23 01:50:31;;;;;;;59.10;24.80;;;;;;;-5.29;80.28;96232.58;106804;1274;22562;-83
2024/01/23 01:52:59;;;;;;;52.70;22.10;;;;;;;-5.24;79.92;96229.40;106773;1274;25424;-83
2024/01/23 01:55:29;;;;;;;73.90;31.50;;;;;;;-5.22;79.68;96221.45;106712;1275;22563;-83
2024/01/23 01:57:57;;;;;;;50.30;23.00;;;;;;;-5.22;79.30;96221.29;106759;1274;24295;-83
2024/01/23 02:00:25;;;;;;;42.30;22.00;;;;;;;-5.23;79.08;96215.74;106688;1274;22521;-83
2024/01/23 02:02:54;;;;;;;50.40;25.00;;;;;;;-5.23;78.81;96205.09;106696;1274;25303;-83
2024/01/23 02:05:22;;;;;;;53.60;25.50;;;;;;;-5.23;78.52;96201.67;106797;1274;22641;-83
2024/01/23 02:07:50;;;;;;;57.20;25.50;;;;;;;-5.35;78.10;96199.13;106743;1274;24269;-83
2024/01/23 02:10:19;;;;;;;68.10;29.00;;;;;;;-5.47;78.74;96192.88;106859;1275;24308;-83
2024/01/23 02:12:48;;;;;;;61.30;28.90;;;;;;;-5.51;79.74;96190.13;106678;1274;22525;-83
2024/01/23 02:15:17;;;;;;;58.80;29.30;;;;;;;-5.52;79.51;96186.11;106593;1274;22461;-83
2024/01/23 02:17:45;;;;;;;63.30;29.20;;;;;;;-5.56;79.40;96182.31;106648;1274;24213;-83
2024/01/23 02:20:13;;;;;;;65.10;29.50;;;;;;;-5.61;79.71;96180.46;106749;1274;22525;-83
2024/01/23 02:22:41;;;;;;;64.60;30.20;;;;;;;-5.59;80.15;96177.63;106710;1274;26600;-83
2024/01/23 02:25:09;;;;;;;71.20;30.80;;;;;;;-5.56;80.15;96171.00;106733;1274;24272;-83
2024/01/23 02:27:37;;;;;;;59.30;27.90;;;;;;;-5.56;79.98;96170.11;106721;1274;24382;-83
2024/01/23 02:30:07;;;;;;;67.10;29.50;;;;;;;-5.57;79.75;96168.33;106719;1274;22528;-83
2024/01/23 02:32:36;;;;;;;65.10;29.70;;;;;;;-5.58;79.93;96165.91;106722;1275;24266;-83
2024/01/23 02:35:04;;;;;;;71.90;33.90;;;;;;;-5.60;80.09;96164.58;106728;1274;22530;-83
2024/01/23 02:37:32;;;;;;;76.80;35.40;;;;;;;-5.61;80.30;96163.84;106698;1253;22546;-83
2024/01/23 02:40:01;;;;;;;74.60;32.30;;;;;;;-5.57;80.33;96164.60;106711;1273;22534;-83
2024/01/23 02:42:29;;;;;;;70.30;32.70;;;;;;;-5.63;80.33;96167.54;106846;1274;22517;-83
2024/01/23 02:44:58;;;;;;;61.90;30.60;;;;;;;-5.62;80.38;96158.15;106895;1275;22533;-83
2024/01/23 02:47:26;;;;;;;59.40;26.80;;;;;;;-5.63;80.12;96164.29;106720;1275;22584;-83
2024/01/23 02:49:54;;;;;;;89.30;47.60;;;;;;;-5.61;79.97;96163.86;106716;1274;24199;-83
2024/01/23 02:52:25;;;;;;;68.10;33.80;;;;;;;-5.56;79.91;96169.63;106750;1274;22774;-84
2024/01/23 02:54:53;;;;;;;65.80;32.70;;;;;;;-5.58;79.45;96164.86;106741;1274;24388;-82
2024/01/23 02:57:21;;;;;;;63.80;31.10;;;;;;;-5.71;78.95;96169.70;106591;1274;22520;-83
2024/01/23 02:59:49;;;;;;;60.20;29.10;;;;;;;-5.75;79.81;96170.69;106685;1274;23019;-83
2024/01/23 03:02:18;;;;;;;37.50;19.80;;;;;;;-5.78;79.67;96176.88;106709;1274;25327;-83
2024/01/23 03:04:46;;;;;;;22.90;11.20;;;;;;;-5.86;79.64;96178.14;106711;1274;24252;-84
2024/01/23 03:07:15;;;;;;;23.40;13.30;;;;;;;-5.84;80.41;96174.65;106671;1274;22568;-83
2024/01/23 03:09:44;;;;;;;19.40;10.50;;;;;;;-5.91;80.11;96177.05;106800;1274;25295;-83
2024/01/23 03:12:23;;;;;;;17.40;7.30;;;;;;;-5.97;80.39;96172.45;106712;1274;22531;-83
2024/01/23 03:14:51;;;;;;;13.30;5.80;;;;;;;-6.05;79.95;96169.30;106776;1274;22694;-82
2024/01/23 03:17:19;;;;;;;13.20;6.40;;;;;;;-6.08;80.29;96165.00;106717;1274;22631;-83
2024/01/23 03:19:49;;;;;;;12.70;6.00;;;;;;;-6.10;81.03;96157.58;106651;1274;24252;-83
2024/01/23 03:22:17;;;;;;;12.00;6.10;;;;;;;-6.15;80.54;96153.88;106737;1274;22518;-83
2024/01/23 03:24:46;;;;;;;11.20;6.30;;;;;;;-6.11;80.92;96152.51;106589;1274;22529;-84
2024/01/23 03:27:14;;;;;;;23.50;13.00;;;;;;;-6.07;81.16;96150.83;106692;1274;22535;-83
2024/01/23 03:29:43;;;;;;;20.70;10.50;;;;;;;-5.99;81.14;96152.48;106809;1274;25380;-83
2024/01/23 03:32:12;;;;;;;30.70;14.30;;;;;;;-6.03;80.37;96153.98;106709;1274;25667;-84
2024/01/23 03:34:40;;;;;;;37.00;17.00;;;;;;;-6.10;79.99;96157.55;106677;1275;22521;-83
2024/01/23 03:37:09;;;;;;;40.20;20.00;;;;;;;-6.16;80.47;96150.74;106679;1274;22539;-84
2024/01/23 03:39:37;;;;;;;49.10;22.70;;;;;;;-6.07;80.93;96153.94;106718;1274;24063;-84
2024/01/23 03:42:05;;;;;;;79.50;30.80;;;;;;;-6.00;80.90;96157.54;106753;1274;24273;-83
2024/01/23 03:44:33;;;;;;;87.00;35.00;;;;;;;-6.02;80.48;96155.39;106780;1274;24516;-84
2024/01/23 03:47:02;;;;;;;119.50;41.80;;;;;;;-5.97;80.74;96156.17;106762;1274;22527;-83
2024/01/23 03:49:30;;;;;;;100.50;35.00;;;;;;;-5.98;80.22;96154.41;106756;1274;22617;-83
2024/01/23 03:51:58;;;;;;;31.80;14.00;;;;;;;-6.08;79.64;96156.64;106692;1274;22638;-84
2024/01/23 03:54:27;;;;;;;15.10;6.70;;;;;;;-6.13;80.13;96153.45;106691;1274;24284;-84
2024/01/23 03:56:55;;;;;;;13.50;7.60;;;;;;;-6.06;80.53;96148.50;106730;1264;22653;-83
2024/01/23 03:59:24;;;;;;;9.70;5.80;;;;;;;-6.02;80.83;96144.29;106761;1274;22534;-83
2024/01/23 04:01:52;;;;;;;11.40;6.70;;;;;;;-5.99;80.91;96144.42;106652;1274;25329;-83
2024/01/23 04:04:21;;;;;;;9.20;5.10;;;;;;;-6.01;80.32;96147.06;106692;1274;24235;-83
2024/01/23 04:06:50;;;;;;;9.30;4.60;;;;;;;-6.01;80.23;96150.14;106703;1274;22552;-83
2024/01/23 04:09:18;;;;;;;10.70;6.20;;;;;;;-6.01;80.34;96147.38;106700;1274;22929;-84
2024/01/23 04:11:46;;;;;;;11.10;4.80;;;;;;;-6.06;80.27;96146.13;106774;1274;26758;-84
2024/01/23 04:14:15;;;;;;;10.20;5.80;;;;;;;-6.09;80.50;96141.00;106735;1259;22643;-83
2024/01/23 04:16:43;;;;;;;10.90;5.80;;;;;;;-6.10;81.13;96143.85;106662;1274;25383;-84
2024/01/23 04:19:11;;;;;;;27.20;14.10;;;;;;;-6.02;81.66;96144.41;106758;1274;22549;-83
2024/01/23 04:21:40;;;;;;;48.30;22.50;;;;;;;-5.99;81.39;96147.50;106705;1274;22848;-83
2024/01/23 04:24:08;;;;;;;56.50;23.60;;;;;;;-5.94;81.24;96143.32;106720;1274;22644;-83
2024/01/23 04:26:38;;;;;;;88.40;38.30;;;;;;;-5.92;81.04;96150.08;106738;1274;25277;-81
2024/01/23 04:29:10;;;;;;;106.90;40.30;;;;;;;-5.92;80.82;96141.54;106734;1274;22483;-80
2024/01/23 04:31:38;;;;;;;93.20;39.80;;;;;;;-5.93;80.91;96142.16;106683;1274;22526;-82
2024/01/23 04:34:06;;;;;;;93.10;38.60;;;;;;;-5.95;80.86;96146.52;106717;1274;25433;-82
2024/01/23 04:36:34;;;;;;;99.50;41.90;;;;;;;-6.01;80.51;96142.57;106713;1274;24221;-83
2024/01/23 04:39:04;;;;;;;89.90;38.30;;;;;;;-6.07;80.30;96142.30;106733;1260;22646;-80
2024/01/23 04:41:32;;;;;;;45.50;20.90;;;;;;;-6.07;80.78;96141.27;106730;1274;22543;-83
2024/01/23 04:44:00;;;;;;;66.60;29.00;;;;;;;-6.01;81.59;96143.98;106680;1274;23911;-83
2024/01/23 04:46:28;;;;;;;18.60;9.00;;;;;;;-6.01;81.22;96140.88;106735;1270;22741;-83
2024/01/23 04:48:56;;;;;;;16.50;7.30;;;;;;;-5.97;81.75;96140.61;106724;1274;25426;-82
2024/01/23 04:51:25;;;;;;;37.40;17.70;;;;;;;-5.92;82.09;96135.89;106696;1274;24233;-83
2024/01/23 04:53:53;;;;;;;38.30;19.00;;;;;;;-5.84;82.39;96133.02;106723;1274;25297;-83
2024/01/23 04:56:22;;;;;;;59.30;26.70;;;;;;;-5.71;82.20;96133.20;106693;1274;23925;-83
2024/01/23 04:58:50;;;;;;;54.50;25.00;;;;;;;-5.63;81.86;96134.11;106856;1274;22573;-83
2024/01/23 05:01:18;;;;;;;70.00;29.90;;;;;;;-5.63;81.01;96125.35;106709;1274;22529;-83
2024/01/23 05:03:47;;;;;;;63.80;28.60;;;;;;;-5.72;80.54;96124.77;106661;1274;22752;-82
2024/01/23 05:06:15;;;;;;;62.60;29.00;;;;;;;-5.84;80.96;96116.57;106560;1268;22525;-83
2024/01/23 05:08:43;;;;;;;61.50;29.60;;;;;;;-5.87;81.58;96110.80;106655;1274;22642;-83
2024/01/23 05:11:11;;;;;;;61.00;28.40;;;;;;;-5.77;81.83;96112.27;106638;1274;24386;-82
2024/01/23 05:13:43;;;;;;;59.20;30.20;;;;;;;-5.75;81.53;96109.16;106746;1275;22496;-82
2024/01/23 05:16:11;;;;;;;77.70;36.20;;;;;;;-5.78;81.07;96109.01;106688;1274;24273;-82
2024/01/23 05:18:39;;;;;;;65.80;29.70;;;;;;;-5.80;81.03;96107.90;106774;1269;25310;-83
2024/01/23 05:21:08;;;;;;;119.30;53.40;;;;;;;-5.79;81.54;96106.55;106740;1263;22798;-82
2024/01/23 05:23:36;;;;;;;80.00;37.40;;;;;;;-5.75;81.86;96099.73;106638;1274;25453;-82
2024/01/23 05:26:05;;;;;;;24.70;10.00;;;;;;;-5.68;82.52;96096.16;106715;1274;23004;-82
2024/01/23 05:28:33;;;;;;;18.10;9.90;;;;;;;-5.54;82.47;96090.19;106877;1274;24257;-82
2024/01/23 05:31:02;;;;;;;22.30;11.20;;;;;;;-5.39;82.34;96081.02;106897;1274;25307;-83
2024/01/23 05:33:30;;;;;;;30.60;14.80;;;;;;;-5.22;82.46;96082.49;106668;1274;25518;-82
2024/01/23 05:35:59;;;;;;;60.00;27.70;;;;;;;-5.13;81.68;96085.69;106742;1274;22534;-82
2024/01/23 05:38:27;;;;;;;76.70;33.60;;;;;;;-5.11;81.36;96090.13;106795;1274;22660;-82
2024/01/23 05:40:56;;;;;;;88.50;37.80;;;;;;;-5.09;81.10;96083.67;106624;1274;22528;-79
2024/01/23 05:43:24;;;;;;;66.60;32.10;;;;;;;-5.04;81.13;96078.96;106697;1274;25590;-82
2024/01/23 05:45:53;;;;;;;72.20;34.40;;;;;;;-4.98;80.54;96080.77;106668;1274;22516;-82
2024/01/23 05:48:21;;;;;;;74.40;32.70;;;;;;;-5.00;79.77;96084.29;106776;1274;24229;-82
2024/01/23 05:50:50;;;;;;;27.90;12.90;;;;;;;-5.05;79.58;96082.33;106720;1272;22934;-82
2024/01/23 05:53:18;;;;;;;58.10;28.90;;;;;;;-5.14;79.72;96077.56;106718;1274;24297;-82
2024/01/23 05:55:46;;;;;;;111.70;48.70;;;;;;;-5.31;80.65;96070.79;106646;1274;24264;-82
2024/01/23 05:58:14;;;;;;;72.30;36.90;;;;;;;-5.42;81.02;96068.48;106752;1274;22746;-82
2024/01/23 06:00:43;;;;;;;68.50;34.10;;;;;;;-5.46;81.42;96068.64;106624;1274;25370;-81
2024/01/23 06:03:11;;;;;;;69.70;33.80;;;;;;;-5.46;81.36;96076.35;106768;1274;24257;-82
2024/01/23 06:05:39;;;;;;;66.30;31.00;;;;;;;-5.38;81.81;96072.11;106701;1274;22509;-78
2024/01/23 06:08:08;;;;;;;74.30;36.60;;;;;;;-5.32;81.62;96077.58;106682;1274;24985;-77
2024/01/23 06:10:36;;;;;;;79.80;39.00;;;;;;;-5.28;81.26;96078.82;106610;1274;22809;-78
2024/01/23 06:13:04;;;;;;;85.40;41.70;;;;;;;-5.28;81.24;96082.23;106724;1274;22536;-83
2024/01/23 06:15:32;;;;;;;117.80;54.30;;;;;;;-5.26;81.54;96084.05;106552;1274;22523;-81
2024/01/23 06:18:00;;;;;;;98.80;46.30;;;;;;;-5.16;81.49;96086.77;106770;1274;24234;-84
2024/01/23 06:20:29;;;;;;;96.70;46.70;;;;;;;-5.16;81.11;96095.52;106739;1274;24298;-80
2024/01/23 06:22:57;;;;;;;98.50;49.30;;;;;;;-5.13;81.23;96106.45;106713;1274;22532;-82
2024/01/23 06:25:26;;;;;;;97.90;46.50;;;;;;;-5.15;80.82;96115.80;106747;1274;25429;-82
2024/01/23 06:27:54;;;;;;;93.80;46.20;;;;;;;-5.17;81.12;96125.27;106758;1274;22545;-83
2024/01/23 06:30:22;;;;;;;94.50;45.30;;;;;;;-5.16;81.58;96125.52;106843;1274;22517;-83
2024/01/23 06:32:50;;;;;;;91.10;44.20;;;;;;;-5.21;81.63;96128.52;106741;1274;22539;-82
2024/01/23 06:35:19;;;;;;;26.20;14.40;;;;;;;-5.12;81.94;96124.36;106723;1274;22602;-83
2024/01/23 06:37:47;;;;;;;45.90;21.80;;;;;;;-4.98;82.35;96119.89;106707;1274;22614;-81
2024/01/23 06:40:15;;;;;;;20.40;10.50;;;;;;;-4.91;82.00;96128.11;106698;1274;24222;-81
2024/01/23 06:42:43;;;;;;;21.70;13.30;;;;;;;-4.86;81.93;96129.77;106631;1274;23924;-82
2024/01/23 06:45:11;;;;;;;59.20;28.40;;;;;;;-4.73;81.76;96131.70;106704;1274;22535;-81
2024/01/23 06:47:41;;;;;;;34.20;17.80;;;;;;;-4.69;81.18;96136.02;106934;1274;22516;-82
2024/01/23 06:50:10;;;;;;;15.10;8.60;;;;;;;-4.64;81.61;96147.79;106729;1274;22650;-79
2024/01/23 06:52:38;;;;;;;12.90;7.20;;;;;;;-4.59;81.44;96154.58;106774;1274;22530;-80
2024/01/23 06:55:06;;;;;;;575.70;374.20;;;;;;;-4.54;81.34;96157.17;106851;1274;24358;-77
2024/01/23 06:57:34;;;;;;;103.70;58.50;;;;;;;-4.46;82.18;96148.65;107018;1274;24423;-77
2024/01/23 07:00:03;;;;;;;104.90;53.90;;;;;;;-4.29;82.31;96143.24;106949;1274;24378;-79
2024/01/23 07:02:32;;;;;;;90.90;45.60;;;;;;;-4.23;81.53;96138.06;106663;1274;24401;-77
2024/01/23 07:05:00;;;;;;;86.60;44.40;;;;;;;-4.23;81.11;96133.08;106686;1274;24295;-79
2024/01/23 07:07:28;;;;;;;88.40;44.80;;;;;;;-4.27;80.62;96129.23;106702;1275;25248;-78
2024/01/23 07:09:56;;;;;;;74.70;38.70;;;;;;;-4.25;81.11;96131.42;106663;1274;23934;-78
2024/01/23 07:12:24;;;;;;;82.50;42.40;;;;;;;-4.20;81.30;96136.50;106676;1274;25492;-78
2024/01/23 07:14:52;;;;;;;80.40;42.60;;;;;;;-4.10;81.66;96149.28;106715;1274;24274;-77
2024/01/23 07:17:20;;;;;;;86.70;41.30;;;;;;;-4.05;81.05;96150.38;107038;1267;25614;-81
2024/01/23 07:19:49;;;;;;;90.80;43.00;;;;;;;-4.07;80.80;96157.17;106853;1274;22524;-80
2024/01/23 07:22:17;;;;;;;80.90;44.40;;;;;;;-4.06;80.83;96159.42;106832;1274;23145;-79
2024/01/23 07:24:45;;;;;;;90.00;48.70;;;;;;;-4.01;81.04;96156.42;106683;1274;22645;-79
2024/01/23 07:27:14;;;;;;;96.30;48.90;;;;;;;-3.95;80.71;96155.67;106878;1274;22530;-78
2024/01/23 07:29:42;;;;;;;104.90;56.20;;;;;;;-3.93;80.60;96159.18;106856;1274;26608;-78
2024/01/23 07:32:10;;;;;;;132.60;73.40;;;;;;;-3.89;80.39;96170.36;106758;1272;25423;-78
2024/01/23 07:34:38;;;;;;;113.80;66.70;;;;;;;-3.85;80.59;96167.27;106860;1274;25957;-79
2024/01/23 07:37:08;;;;;;;121.00;65.20;;;;;;;-3.85;80.59;96164.02;106815;1269;22769;-78
2024/01/23 07:39:36;;;;;;;143.80;74.10;;;;;;;-3.79;80.72;96165.34;106870;1255;22531;-77
2024/01/23 07:42:06;;;;;;;157.80;81.90;;;;;;;-3.75;80.48;96163.46;106961;1272;22548;-79
2024/01/23 07:44:38;;;;;;;152.50;73.00;;;;;;;-3.65;80.80;96161.64;106797;1270;22561;-78
2024/01/23 07:47:07;;;;;;;145.30;71.50;;;;;;;-3.55;80.40;96159.54;106932;1273;25369;-78
2024/01/23 07:49:35;;;;;;;120.30;64.50;;;;;;;-3.42;80.75;96150.81;106746;1269;22873;-77
2024/01/23 07:52:04;;;;;;;116.40;63.40;;;;;;;-3.21;80.96;96149.83;106740;1251;22531;-77
2024/01/23 07:54:32;;;;;;;98.50;54.20;;;;;;;-3.04;80.40;96150.02;106673;1267;22520;-77
2024/01/23 07:57:01;;;;;;;101.10;54.70;;;;;;;-2.94;79.77;96139.59;106961;1269;22669;-78
2024/01/23 07:59:29;;;;;;;77.20;44.60;;;;;;;-2.91;79.57;96135.44;106925;1274;25163;-77
2024/01/23 08:01:58;;;;;;;76.60;44.50;;;;;;;-2.78;79.98;96138.73;106722;1273;22539;-77
2024/01/23 08:04:26;;;;;;;79.60;43.40;;;;;;;-2.74;78.55;96136.96;106806;1274;24228;-76
2024/01/23 08:06:54;;;;;;;85.50;47.30;;;;;;;-2.75;78.21;96145.53;106759;1274;24352;-80
2024/01/23 08:09:23;;;;;;;90.10;53.30;;;;;;;-2.79;77.96;96147.80;106790;1274;24293;-76
2024/01/23 08:11:52;;;;;;;86.30;50.80;;;;;;;-2.74;78.19;96154.22;106798;1274;25649;-78
2024/01/23 08:14:22;;;;;;;97.60;51.90;;;;;;;-2.69;78.53;96158.71;106750;1274;24389;-78
2024/01/23 08:16:51;;;;;;;70.40;39.20;;;;;;;-2.55;78.91;96159.44;106826;1274;26561;-76
2024/01/23 08:19:19;;;;;;;73.00;43.00;;;;;;;-2.42;78.64;96159.80;106791;1274;24271;-76
2024/01/23 08:21:49;;;;;;;58.20;31.20;;;;;;;-2.30;78.22;96161.83;106686;1274;22558;-78
2024/01/23 08:24:17;;;;;;;44.90;24.80;;;;;;;-2.21;77.19;96166.70;106777;1274;25377;-76
2024/01/23 08:26:47;;;;;;;39.70;20.70;;;;;;;-2.13;76.69;96169.05;106793;1274;24544;-75
2024/01/23 08:29:15;;;;;;;23.70;12.70;;;;;;;-2.05;75.20;96166.61;106739;1274;25368;-77
2024/01/23 08:31:43;;;;;;;19.10;10.80;;;;;;;-1.95;71.78;96168.55;106793;1274;22530;-78
2024/01/23 08:34:12;;;;;;;18.10;8.90;;;;;;;-1.86;70.02;96170.11;106908;1274;22531;-79
2024/01/23 08:36:40;;;;;;;16.40;8.80;;;;;;;-1.75;67.97;96168.11;106847;1274;25719;-79
2024/01/23 08:39:08;;;;;;;17.30;9.40;;;;;;;-1.64;65.93;96167.83;106737;1274;24411;-81
2024/01/23 08:41:36;;;;;;;14.80;8.40;;;;;;;-1.56;63.81;96172.79;106628;1274;22524;-77
2024/01/23 08:44:05;;;;;;;14.70;8.70;;;;;;;-1.49;62.55;96172.86;106863;1274;22650;-77
2024/01/23 08:46:34;;;;;;;14.30;8.20;;;;;;;-1.42;62.63;96180.52;106751;1274;25421;-78
2024/01/23 08:49:03;;;;;;;14.20;7.70;;;;;;;-1.34;61.84;96185.31;106761;1274;25395;-78
2024/01/23 08:51:31;;;;;;;19.10;8.80;;;;;;;-1.26;62.24;96187.00;106750;1274;22657;-79
2024/01/23 08:54:00;;;;;;;16.80;9.30;;;;;;;-1.15;61.78;96185.86;106767;1274;22647;-81
2024/01/23 08:56:30;;;;;;;12.60;8.10;;;;;;;-1.06;62.19;96185.81;106689;1274;24522;-82
2024/01/23 08:58:58;;;;;;;13.40;7.70;;;;;;;-0.92;63.43;96185.61;106808;1274;25447;-82
2024/01/23 09:01:26;;;;;;;12.50;7.50;;;;;;;-0.80;62.35;96184.48;106765;1264;22518;-81
2024/01/23 09:03:54;;;;;;;13.30;6.90;;;;;;;-0.67;62.70;96192.18;106907;1274;24251;-81
2024/01/23 09:06:22;;;;;;;13.70;6.80;;;;;;;-0.56;61.67;96193.41;106872;1274;22787;-80
2024/01/23 09:08:51;;;;;;;12.00;6.90;;;;;;;-0.48;60.95;96197.84;106998;1274;22527;-79
2024/01/23 09:11:19;;;;;;;11.10;5.70;;;;;;;-0.42;60.97;96199.40;106909;1274;24426;-81
2024/01/23 09:13:53;;;;;;;13.80;7.40;;;;;;;-0.39;58.95;96194.83;106802;1274;22946;-78
2024/01/23 09:16:21;;;;;;;14.00;7.60;;;;;;;-0.37;58.90;96207.34;106678;1271;25505;-77
2024/01/23 09:18:49;;;;;;;11.30;6.40;;;;;;;-0.37;57.29;96209.59;106678;1274;22522;-78
2024/01/23 09:21:18;;;;;;;14.70;7.50;;;;;;;-0.35;56.08;96208.27;106853;1274;22535;-76
2024/01/23 09:23:46;;;;;;;12.40;6.80;;;;;;;-0.29;55.97;96208.48;106749;1274;24407;-77
2024/01/23 09:26:14;;;;;;;12.00;6.90;;;;;;;-0.20;55.55;96207.92;106720;1274;22741;-76
2024/01/23 09:28:43;;;;;;;11.20;6.50;;;;;;;-0.12;54.99;96207.13;106714;1274;23147;-77
2024/01/23 09:31:11;;;;;;;16.70;8.10;;;;;;;-0.05;55.01;96204.77;106604;1274;22533;-78
2024/01/23 09:33:39;;;;;;;11.60;6.00;;;;;;;0.07;57.03;96197.02;106719;1274;25494;-79
2024/01/23 09:36:09;;;;;;;9.40;5.80;;;;;;;0.18;56.18;96197.52;106978;1274;24225;-79
2024/01/23 09:38:37;;;;;;;14.30;7.30;;;;;;;0.26;55.48;96196.73;106700;1263;24365;-77
2024/01/23 09:41:11;;;;;;;16.50;8.40;;;;;;;0.30;55.52;96188.55;106728;1274;22516;-77
2024/01/23 09:43:42;;;;;;;20.30;10.90;;;;;;;0.30;56.23;96181.80;106796;1274;23263;-79
2024/01/23 09:46:14;;;;;;;18.10;10.50;;;;;;;0.33;56.67;96180.33;106762;1274;22870;-78
2024/01/23 09:48:42;;;;;;;15.20;8.80;;;;;;;0.40;57.92;96184.01;106749;1274;25671;-77
2024/01/23 09:51:13;;;;;;;11.30;6.30;;;;;;;0.44;57.02;96190.53;106709;1274;24057;-77
2024/01/23 09:53:43;;;;;;;12.10;5.60;;;;;;;0.46;55.33;96197.52;106744;1274;24316;-78
2024/01/23 09:56:12;;;;;;;12.60;7.10;;;;;;;0.49;55.19;96198.46;106751;1274;22598;-78
2024/01/23 09:58:41;;;;;;;8.20;5.10;;;;;;;0.55;55.69;96190.67;106771;1274;22531;-78
2024/01/23 10:01:11;;;;;;;10.90;5.30;;;;;;;0.59;54.35;96196.34;106734;1274;25376;-78
2024/01/23 10:03:48;;;;;;;11.70;5.40;;;;;;;0.63;53.92;96194.38;106813;1274;22610;-79
2024/01/23 10:06:17;;;;;;;11.00;6.50;;;;;;;0.66;53.55;96191.16;106825;1274;25489;-78
2024/01/23 10:08:45;;;;;;;11.40;6.40;;;;;;;0.67;53.60;96197.59;106857;1274;22682;-78
2024/01/23 10:11:14;;;;;;;9.80;6.40;;;;;;;0.69;53.51;96203.20;106869;1274;22605;-78
2024/01/23 10:13:43;;;;;;;10.60;5.20;;;;;;;0.74;53.35;96201.98;107006;1274;22641;-78
2024/01/23 10:16:11;;;;;;;15.30;6.80;;;;;;;0.83;53.22;96202.39;107114;1274;23086;-79
2024/01/23 10:18:39;;;;;;;12.60;6.90;;;;;;;0.91;53.16;96202.27;107120;1274;22534;-78
2024/01/23 10:21:08;;;;;;;11.10;6.30;;;;;;;1.00;53.81;96204.45;106836;1274;22773;-78
2024/01/23 10:23:37;;;;;;;11.10;6.10;;;;;;;1.12;54.43;96200.62;106803;1269;22826;-78
2024/01/23 10:26:09;;;;;;;10.10;6.50;;;;;;;1.26;54.10;96184.70;106882;1264;22651;-77
2024/01/23 10:28:37;;;;;;;11.60;6.60;;;;;;;1.36;52.94;96177.53;106748;1274;24282;-78
2024/01/23 10:31:05;;;;;;;10.30;6.00;;;;;;;1.49;53.61;96173.33;106789;1274;24112;-78
2024/01/23 10:33:37;;;;;;;14.60;7.50;;;;;;;1.64;54.66;96174.75;106979;1274;22527;-78
2024/01/23 10:36:09;;;;;;;15.70;9.20;;;;;;;1.77;54.08;96172.31;106781;1274;25358;-78
2024/01/23 10:38:38;;;;;;;15.10;7.90;;;;;;;1.83;53.74;96168.98;106866;1274;25271;-78
2024/01/23 10:41:10;;;;;;;12.60;6.70;;;;;;;1.93;53.59;96163.32;106762;1274;25236;-78
2024/01/23 10:43:39;;;;;;;15.60;7.50;;;;;;;2.06;51.77;96157.40;106728;1274;23346;-77
2024/01/23 10:46:08;;;;;;;13.80;8.20;;;;;;;2.29;52.66;96156.18;106709;1274;22533;-78
2024/01/23 10:48:37;;;;;;;12.60;6.80;;;;;;;2.54;51.81;96158.80;106678;1274;24212;-78
2024/01/23 10:51:18;;;;;;;12.00;6.50;;;;;;;2.81;51.96;96154.31;106689;1264;26542;-77
2024/01/23 10:53:57;;;;;;;13.80;7.40;;;;;;;2.98;52.07;96148.21;106388;1274;376095;-78
2024/01/23 10:56:41;;;;;;;12.90;6.30;;;;;;;3.24;52.16;96136.04;106675;1268;22667;-77
2024/01/23 10:59:17;;;;;;;17.90;8.00;;;;;;;3.75;51.73;96133.44;106777;1274;22530;-77
2024/01/23 11:01:51;;;;;;;19.50;8.70;;;;;;;4.16;51.55;96137.20;106734;1274;24253;-77
2024/01/23 11:04:19;;;;;;;15.00;8.90;;;;;;;4.43;51.59;96130.80;106736;1274;25421;-78
2024/01/23 11:07:04;;;;;;;24.10;10.40;;;;;;;4.57;50.66;96125.94;106708;1274;24507;-78
2024/01/23 11:09:43;;;;;;;8.70;4.90;;;;;;;4.57;50.44;96122.98;106605;1271;25344;-78
2024/01/23 11:12:11;;;;;;;8.40;5.40;;;;;;;4.53;50.37;96123.27;106786;1274;22516;-78
2024/01/23 11:14:48;;;;;;;7.60;4.40;;;;;;;4.39;48.07;96124.13;106730;1274;22639;-78
2024/01/23 11:17:17;;;;;;;5.40;3.10;;;;;;;4.33;49.45;96134.84;106637;1274;22943;-78
2024/01/23 11:19:46;;;;;;;8.40;4.60;;;;;;;4.23;49.45;96139.59;106835;1274;22527;-78